Time;durP1;ratioP1;P1;durP2;ratioP2;P2;SDS_P1;SDS_P2;PMS_P1;PMS_P2;Temp;Humidity;BMP_temperature;BMP_pressure;BME280_temperature;BME280_humidity;BME280_pressure;Samples;Min_cycle;Max_cycle;Signal;HPM_P1;HPM_P2
2021/04/30 00:00:54;;;;;;;13.77;7.50;;;10.90;99.90;;;;;;20916820;28;20037;-75
2021/04/30 00:10:55;;;;;;;11.27;8.13;;;11.10;99.90;;;;;;20914823;28;20510;-75
2021/04/30 00:20:57;;;;;;;14.00;8.73;;;11.10;99.90;;;;;;20915360;28;20029;-76
2021/04/30 00:30:59;;;;;;;7.78;5.78;;;11.10;99.90;;;;;;20913609;28;20104;-74
2021/04/30 00:41:00;;;;;;;6.93;5.20;;;11.10;99.90;;;;;;20914223;28;20090;-75
2021/04/30 00:51:01;;;;;;;9.98;5.05;;;11.00;99.90;;;;;;20912812;28;20283;-75
2021/04/30 01:01:02;;;;;;;10.93;6.33;;;11.00;99.90;;;;;;20912293;28;20098;-74
2021/04/30 01:11:03;;;;;;;9.87;6.10;;;10.90;99.90;;;;;;20911189;28;20064;-75
2021/04/30 01:21:04;;;;;;;9.88;5.32;;;10.80;99.90;;;;;;20910913;28;20032;-75
2021/04/30 01:31:05;;;;;;;10.37;6.40;;;10.90;99.90;;;;;;20909667;28;20113;-74
2021/04/30 01:41:06;;;;;;;9.77;6.77;;;10.90;99.90;;;;;;20909350;28;20048;-75
2021/04/30 01:51:07;;;;;;;15.47;7.03;;;10.60;99.90;;;;;;20908939;28;20028;-75
2021/04/30 02:01:10;;;;;;;10.50;7.40;;;10.60;99.90;;;;;;20907997;28;20028;-75
2021/04/30 02:11:10;;;;;;;11.50;5.95;;;10.50;99.90;;;;;;20907258;28;20056;-75
2021/04/30 02:21:11;;;;;;;12.20;5.40;;;10.50;99.90;;;;;;20907213;28;20033;-75
2021/04/30 02:31:15;;;;;;;8.93;6.07;;;10.60;99.90;;;;;;20906628;28;20510;-75
2021/04/30 02:41:16;;;;;;;11.52;6.55;;;10.30;99.90;;;;;;20906270;28;20112;-75
2021/04/30 02:51:17;;;;;;;19.97;9.60;;;10.20;99.90;;;;;;20905918;28;20498;-75
2021/04/30 03:01:18;;;;;;;25.10;12.97;;;9.90;99.90;;;;;;20917322;28;20460;-75
2021/04/30 03:11:20;;;;;;;26.47;13.27;;;9.60;99.90;;;;;;20919763;28;20040;-75
2021/04/30 03:21:21;;;;;;;29.50;13.60;;;9.40;99.90;;;;;;20920309;28;20033;-75
2021/04/30 03:31:21;;;;;;;24.17;12.53;;;9.50;99.90;;;;;;20920107;28;20519;-75
2021/04/30 03:41:22;;;;;;;26.53;13.67;;;9.40;99.90;;;;;;20917388;28;20033;-75
2021/04/30 03:51:23;;;;;;;24.57;14.43;;;9.30;99.90;;;;;;20918461;28;20428;-75
2021/04/30 04:01:24;;;;;;;27.27;15.60;;;9.20;99.90;;;;;;20917417;28;20045;-75
2021/04/30 04:11:25;;;;;;;27.03;14.27;;;9.10;99.90;;;;;;20920796;28;20086;-77
2021/04/30 04:21:26;;;;;;;27.70;14.40;;;9.20;99.90;;;;;;20929853;28;20029;-77
2021/04/30 04:31:27;;;;;;;23.70;13.63;;;9.10;99.90;;;;;;20929438;28;20037;-78
2021/04/30 04:41:27;;;;;;;27.33;13.93;;;9.20;99.90;;;;;;20927807;28;20484;-77
2021/04/30 04:51:28;;;;;;;31.33;14.93;;;9.20;99.90;;;;;;20925346;28;20100;-78
2021/04/30 05:01:29;;;;;;;32.70;15.23;;;9.30;99.90;;;;;;20912536;28;20495;-78
2021/04/30 05:11:30;;;;;;;32.03;14.47;;;9.30;99.90;;;;;;20910267;28;20102;-78
2021/04/30 05:21:32;;;;;;;22.47;13.03;;;9.30;99.90;;;;;;20911108;28;20021;-74
2021/04/30 05:31:34;;;;;;;;;;;9.30;99.90;;;;;;20911139;28;20060;-74
2021/04/30 05:41:35;;;;;;;20.13;10.65;;;9.50;99.90;;;;;;20909933;28;19931;-74
2021/04/30 05:51:36;;;;;;;22.63;11.43;;;9.60;99.90;;;;;;20907032;28;20032;-74
2021/04/30 06:01:37;;;;;;;19.80;10.40;;;10.00;99.90;;;;;;20901847;28;20075;-74
2021/04/30 06:11:37;;;;;;;22.67;10.50;;;10.10;99.90;;;;;;20860917;28;20555;-74
2021/04/30 06:21:38;;;;;;;21.90;11.07;;;10.10;99.90;;;;;;20861068;28;20033;-74
2021/04/30 06:31:40;;;;;;;23.40;10.37;;;10.50;99.90;;;;;;20864216;28;20068;-74
2021/04/30 06:41:40;;;;;;;18.90;9.87;;;11.50;99.90;;;;;;20874907;28;20035;-75
2021/04/30 06:51:41;;;;;;;16.00;9.50;;;11.20;99.90;;;;;;20873207;28;20033;-75
2021/04/30 07:01:42;;;;;;;18.52;8.77;;;11.20;99.90;;;;;;20872263;28;20025;-75
2021/04/30 07:11:43;;;;;;;18.08;8.88;;;10.90;99.90;;;;;;20850304;28;693059;-75
2021/04/30 07:21:44;;;;;;;23.50;10.00;;;11.10;99.90;;;;;;20876596;28;20092;-74
2021/04/30 07:31:45;;;;;;;15.38;9.55;;;11.20;99.90;;;;;;20875079;28;20564;-75
2021/04/30 07:41:45;;;;;;;18.73;9.60;;;11.80;99.90;;;;;;20874891;28;20029;-75
2021/04/30 07:51:46;;;;;;;14.68;9.00;;;12.00;99.90;;;;;;20873925;28;20071;-76
2021/04/30 08:01:47;;;;;;;18.05;9.25;;;12.30;99.90;;;;;;20874803;28;20021;-75
2021/04/30 08:11:48;;;;;;;14.30;8.50;;;13.50;99.90;;;;;;20873968;28;20021;-77
2021/04/30 08:21:49;;;;;;;16.63;8.30;;;13.00;99.90;;;;;;20881057;28;20418;-75
2021/04/30 08:31:50;;;;;;;16.63;8.55;;;13.30;99.90;;;;;;20915036;28;20112;-76
2021/04/30 08:41:51;;;;;;;17.58;9.00;;;13.10;99.90;;;;;;20914383;28;20029;-75
2021/04/30 08:51:52;;;;;;;15.07;8.97;;;13.10;99.90;;;;;;20893001;28;20075;-76
2021/04/30 09:01:53;;;;;;;14.30;8.65;;;13.10;99.90;;;;;;20888502;28;20373;-75
2021/04/30 09:11:57;;;;;;;13.98;8.82;;;13.30;99.90;;;;;;20890504;28;20404;-75
2021/04/30 09:21:59;;;;;;;15.10;9.70;;;13.20;99.90;;;;;;20822237;28;20083;-75
2021/04/30 09:32:02;;;;;;;28.73;14.80;;;13.10;99.90;;;;;;20840664;28;20517;-75
2021/04/30 09:42:10;;;;;;;28.27;16.50;;;11.90;99.90;;;;;;20890027;28;20035;-75
2021/04/30 09:52:12;;;;;;;26.17;16.25;;;10.70;99.90;;;;;;20872906;28;20041;-75
2021/04/30 10:02:17;;;;;;;28.05;16.70;;;10.50;99.90;;;;;;20806231;28;20042;-75
2021/04/30 10:12:23;;;;;;;29.05;17.80;;;9.90;99.90;;;;;;20860196;28;20036;-74
2021/04/30 10:22:27;;;;;;;27.42;16.90;;;9.70;99.90;;;;;;20886894;28;20567;-74
2021/04/30 10:32:36;;;;;;;26.08;15.73;;;9.60;99.90;;;;;;20886583;28;20134;-75
2021/04/30 10:42:44;;;;;;;29.70;16.90;;;9.40;99.90;;;;;;20881845;28;20477;-75
2021/04/30 10:52:45;;;;;;;29.70;18.13;;;8.50;99.90;;;;;;20882908;28;20029;-75
2021/04/30 11:02:46;;;;;;;31.48;15.95;;;7.90;99.90;;;;;;20883419;28;20029;-76
2021/04/30 11:12:56;;;;;;;25.83;15.47;;;7.90;99.90;;;;;;20879044;28;20033;-75
2021/04/30 11:23:20;;;;;;;26.85;15.98;;;7.70;99.90;;;;;;20865798;28;20056;-75
2021/04/30 11:33:21;;;;;;;29.08;17.95;;;7.10;99.90;;;;;;20862434;28;20031;-75
2021/04/30 11:43:23;;;;;;;24.27;12.43;;;6.80;99.90;;;;;;20884411;28;20372;-76
2021/04/30 11:53:23;;;;;;;17.00;11.00;;;6.50;99.90;;;;;;20916255;28;20495;-75
2021/04/30 12:03:24;;;;;;;17.43;10.90;;;6.30;99.90;;;;;;20917458;28;20025;-75
2021/04/30 12:13:25;;;;;;;22.67;12.23;;;6.10;99.90;;;;;;20916826;28;20033;-75
2021/04/30 12:23:26;;;;;;;23.17;13.40;;;5.90;99.90;;;;;;20916228;28;20035;-75
2021/04/30 12:33:30;;;;;;;25.20;15.17;;;6.00;99.90;;;;;;20914096;28;20036;-74
2021/04/30 12:43:31;;;;;;;24.33;15.10;;;6.10;99.90;;;;;;20914293;28;20404;-75
2021/04/30 12:53:32;;;;;;;27.13;15.15;;;5.90;99.90;;;;;;20912398;28;20033;-75
2021/04/30 13:03:34;;;;;;;24.65;15.13;;;6.00;99.90;;;;;;20911472;28;20041;-74
2021/04/30 13:14:10;;;;;;;34.13;16.15;;;6.00;99.90;;;;;;20912272;28;20072;-75
2021/04/30 13:24:13;;;;;;;34.25;17.77;;;5.90;99.90;;;;;;20911320;28;20036;-75
2021/04/30 13:34:14;;;;;;;28.80;16.85;;;5.90;99.90;;;;;;20910554;28;20091;-75
2021/04/30 13:44:16;;;;;;;28.63;15.87;;;5.90;99.90;;;;;;20909931;28;20029;-76
2021/04/30 13:54:17;;;;;;;30.65;17.27;;;6.00;99.90;;;;;;20908845;28;20036;-75
2021/04/30 14:04:18;;;;;;;29.07;16.30;;;6.10;99.90;;;;;;20908554;28;20024;-75
2021/04/30 14:14:19;;;;;;;32.23;17.67;;;6.00;99.90;;;;;;20906423;28;20502;-75
2021/04/30 14:24:22;;;;;;;34.95;18.55;;;5.90;99.90;;;;;;20907321;28;20037;-75
2021/04/30 14:34:23;;;;;;;35.20;18.83;;;6.00;99.90;;;;;;20906904;28;20086;-75
2021/04/30 14:44:26;;;;;;;31.50;17.83;;;5.90;99.90;;;;;;20905325;28;20033;-74
2021/04/30 14:54:27;;;;;;;33.20;16.90;;;5.80;99.90;;;;;;20913567;28;20029;-75
2021/04/30 15:04:28;;;;;;;34.43;18.00;;;5.80;99.90;;;;;;20921369;28;20033;-74
2021/04/30 15:14:29;;;;;;;34.37;19.17;;;5.90;99.90;;;;;;20921394;28;20559;-74
2021/04/30 15:24:30;;;;;;;38.23;19.17;;;5.80;99.90;;;;;;20920552;28;20472;-74
2021/04/30 15:34:34;;;;;;;39.57;19.97;;;5.90;99.90;;;;;;20919835;28;20033;-75
2021/04/30 15:44:36;;;;;;;40.17;21.15;;;6.00;99.90;;;;;;20917610;28;20666;-75
2021/04/30 15:54:37;;;;;;;37.05;20.38;;;6.00;99.90;;;;;;20918502;28;20040;-75
2021/04/30 16:04:38;;;;;;;;;;;6.10;99.90;;;;;;20914436;28;20515;-76
2021/04/30 16:14:39;;;;;;;53.97;25.67;;;6.00;99.90;;;;;;20916870;28;19964;-76
2021/04/30 16:24:40;;;;;;;54.70;26.27;;;5.90;99.90;;;;;;20912253;28;20826;-75
2021/04/30 16:34:41;;;;;;;51.53;24.73;;;5.90;99.90;;;;;;20913832;28;20484;-74
2021/04/30 16:44:42;;;;;;;52.70;27.08;;;5.90;99.90;;;;;;20913977;28;20036;-74
2021/04/30 16:54:42;;;;;;;53.67;25.73;;;5.90;99.90;;;;;;20912843;28;20036;-74
2021/04/30 17:04:44;;;;;;;63.63;29.93;;;5.90;99.90;;;;;;20912279;28;20488;-74
2021/04/30 17:14:46;;;;;;;59.28;29.75;;;5.90;99.90;;;;;;20910824;28;20636;-74
2021/04/30 17:24:50;;;;;;;54.20;27.75;;;5.90;99.90;;;;;;20906739;28;20032;-74
2021/04/30 17:34:51;;;;;;;57.15;27.40;;;5.90;99.90;;;;;;20889350;28;20037;-75
2021/04/30 17:44:53;;;;;;;55.53;26.93;;;5.80;99.90;;;;;;20909469;28;20033;-74
2021/04/30 17:54:56;;;;;;;58.08;27.25;;;5.80;99.90;;;;;;20908507;28;20028;-74
2021/04/30 18:04:57;;;;;;;61.58;28.23;;;5.80;99.90;;;;;;20908360;28;20098;-74
2021/04/30 18:14:58;;;;;;;;;;;5.80;99.90;;;;;;20906871;28;20102;-74
2021/04/30 18:24:59;;;;;;;56.25;26.15;;;5.80;99.90;;;;;;20906343;28;20012;-75
2021/04/30 18:35:00;;;;;;;58.63;27.73;;;5.90;99.90;;;;;;20906615;28;20111;-75
2021/04/30 18:45:01;;;;;;;55.57;28.83;;;5.90;99.90;;;;;;20905224;28;20027;-75
2021/04/30 18:55:04;;;;;;;64.67;29.27;;;5.90;99.90;;;;;;20905114;28;20056;-74
2021/04/30 19:05:06;;;;;;;63.50;32.17;;;5.90;99.90;;;;;;20905635;28;20067;-74
2021/04/30 19:15:08;;;;;;;;;;;5.90;99.90;;;;;;20903536;28;20049;-75
2021/04/30 19:25:09;;;;;;;46.60;23.93;;;5.90;99.90;;;;;;20903779;28;20295;-75
2021/04/30 19:35:10;;;;;;;73.25;33.38;;;5.90;99.90;;;;;;20904513;28;20430;-75
2021/04/30 19:45:13;;;;;;;61.63;30.42;;;6.00;99.90;;;;;;20919014;28;20121;-74
2021/04/30 19:55:15;;;;;;;75.78;34.53;;;5.90;99.90;;;;;;20900675;28;20120;-74
2021/04/30 20:05:17;;;;;;;71.93;29.88;;;5.90;99.90;;;;;;20833451;28;20463;-75
2021/04/30 20:15:18;;;;;;;74.50;33.53;;;6.00;99.90;;;;;;20832976;28;20048;-75
2021/04/30 20:25:19;;;;;;;70.67;33.03;;;6.00;99.90;;;;;;20833509;28;20033;-75
2021/04/30 20:35:20;;;;;;;78.17;33.70;;;6.00;99.90;;;;;;20832535;28;20037;-76
2021/04/30 20:45:22;;;;;;;66.67;31.53;;;6.10;99.90;;;;;;20830574;28;20583;-76
2021/04/30 20:55:25;;;;;;;76.75;33.50;;;6.10;99.90;;;;;;20830144;28;20033;-76
2021/04/30 21:05:29;;;;;;;73.50;35.53;;;6.10;99.90;;;;;;20835745;28;20069;-76
2021/04/30 21:15:29;;;;;;;82.95;36.83;;;6.20;99.90;;;;;;20841478;28;20051;-74
2021/04/30 21:25:31;;;;;;;76.07;33.13;;;6.20;99.90;;;;;;20807298;28;20748;-75
2021/04/30 21:35:32;;;;;;;82.90;35.22;;;6.20;99.90;;;;;;20811147;28;20350;-75
2021/04/30 21:45:36;;;;;;;80.88;35.78;;;6.20;99.90;;;;;;20848830;28;20040;-75
2021/04/30 21:55:38;;;;;;;73.13;34.17;;;6.20;99.90;;;;;;20971221;28;20043;-76
2021/04/30 22:05:39;;;;;;;75.50;35.28;;;6.30;99.90;;;;;;20907291;28;20040;-75
2021/04/30 22:15:45;;;;;;;80.30;36.77;;;6.30;99.90;;;;;;20886768;28;20496;-74
2021/04/30 22:25:46;;;;;;;81.60;36.55;;;6.30;99.90;;;;;;20888411;28;20115;-75
2021/04/30 22:35:47;;;;;;;85.63;36.40;;;6.30;99.90;;;;;;20875156;28;20499;-75
2021/04/30 22:45:48;;;;;;;76.10;35.83;;;6.30;99.90;;;;;;20880429;28;20173;-75
2021/04/30 22:55:50;;;;;;;71.43;33.00;;;6.30;99.90;;;;;;20872333;28;20087;-74
2021/04/30 23:05:51;;;;;;;77.30;36.38;;;6.40;99.90;;;;;;20862285;28;20400;-75
2021/04/30 23:15:52;;;;;;;74.47;33.50;;;6.50;99.90;;;;;;20890539;28;20037;-75
2021/04/30 23:25:53;;;;;;;71.60;34.03;;;6.40;99.90;;;;;;20896182;28;20032;-74
2021/04/30 23:35:53;;;;;;;72.93;33.80;;;6.50;99.90;;;;;;20878686;28;20033;-75
2021/04/30 23:45:59;;;;;;;79.27;34.57;;;6.50;99.90;;;;;;20913866;28;20074;-75
2021/04/30 23:56:00;;;;;;;69.15;32.72;;;6.50;99.90;;;;;;20917201;28;20068;-75
